首页
METAR-TAF:

METAR-TAF

机场 :

Ozark, 阿拉巴马州, 美国

纬度: 31-17N, 经度: 085-43W, 海拔: 91米

当前天气观测

该预报发布于1小时和11分钟前的04:56 UTC
静风
温度 23°C
湿度 83%
气压 1015 hPa
能見度: 16.1公里
阴天层高于17000英尺

METAR: KOZR 250456Z AUTO 00000KT 10SM OVC170 23/20 A2996 RMK AO2 SLP145 T02260197

时间: 01:07 (06:07 UTC)

预报

该预报发布于29小时和7分钟前的01:00 UTC
预报有效从23日的 01点(UTC)到 24日的 06点(UTC)
风速9节,风向西南
能見度: 9000
散云层高于4000英尺, 积雨云.
小阵雨, 附近有雷暴
成为
从 23日的 05点(UTC)到 23日的 06点(UTC)
风速6节,风向
能見度: 4800
阴天层高于200英尺
轻雾
成为
从 23日的 14点(UTC)到 23日的 15点(UTC)
风速6节,风向西转西南
能见度10公里或以上
少量云层高于4500英尺
成为
从 23日的 19点(UTC)到 23日的 20点(UTC)
风速6节,风向西南
能見度: 2600
散云层高于4000英尺, 积雨云.
附近有雷暴

TAF: KOZR 230100Z 2301/2406 22009KT 9000 -SHRA VCTS SCT040CB QNH2998INS BECMG 2305/2306 18006KT 4800 BR OVC002 QNH2999INS BECMG 2314/2315 25006KT 9999 NSW FEW045 QNH3001INS BECMG 2319/2320 22006KT 9999 VCTS SCT040CB QNH3000INS TX33/2321Z TN20/2309Z LAST NO AMDS AFT 2306 NEXT 2600

超过4000个机场的气象观测和天气预报(METAR&TAF报告)。

可查询的气象台以黄色和红色小点在地图上表示。

将鼠标移到小点上方,可查看气象台名称。

然后点击查看天气观测和预报。

如需切换地图:点击带黑十字的绿色按钮放大地图;点击带横线的绿色按钮缩小地图;或者点击绿色箭头查看邻近地区的地图。


METAR-TAF: